Time,TemperatureF,DewpointF,PressureIn,WindDirection,WindDirectionDegrees,WindSpeedMPH,WindSpeedGustMPH,Humidity,HourlyPrecipIn,Conditions,Clouds,dailyrainin,SoftwareType,DateUTC
2014-09-30 00:06:00,74.5,74.0,29.84,SW,217,0.0,0.0,97,0.00,,,0.00,weatherlink.com 1.10,2014-09-30 04:06:00,
2014-09-30 00:21:00,74.4,74.0,29.84,SW,217,0.0,0.0,97,0.00,,,0.00,weatherlink.com 1.10,2014-09-30 04:21:00,
2014-09-30 00:36:00,74.5,74.0,29.84,SW,217,0.0,0.0,97,0.00,,,0.00,weatherlink.com 1.10,2014-09-30 04:36:00,
2014-09-30 00:51:00,74.6,74.0,29.83,SW,217,0.0,0.0,97,0.00,,,0.00,weatherlink.com 1.10,2014-09-30 04:51:00,
2014-09-30 01:06:00,74.6,74.0,29.83,SW,217,0.0,0.0,97,0.00,,,0.00,weatherlink.com 1.10,2014-09-30 05:06:00,
2014-09-30 01:21:00,74.7,74.0,29.83,SW,217,0.0,1.0,97,0.00,,,0.00,weatherlink.com 1.10,2014-09-30 05:21:00,
2014-09-30 01:36:00,74.8,74.0,29.82,SW,217,0.0,1.0,97,0.00,,,0.00,weatherlink.com 1.10,2014-09-30 05:36:00,
2014-09-30 01:51:00,74.9,74.0,29.83,South,185,0.0,1.0,97,0.00,,,0.00,weatherlink.com 1.10,2014-09-30 05:51:00,
2014-09-30 02:06:00,74.8,74.0,29.83,South,185,0.0,1.0,97,0.00,,,0.00,weatherlink.com 1.10,2014-09-30 06:06:00,
2014-09-30 02:21:00,74.8,74.0,29.83,South,185,0.0,0.0,97,0.00,,,0.00,weatherlink.com 1.10,2014-09-30 06:21:00,
2014-09-30 02:36:00,74.7,74.0,29.82,South,185,0.0,1.0,97,0.00,,,0.00,weatherlink.com 1.10,2014-09-30 06:36:00,
2014-09-30 02:51:00,74.8,74.0,29.82,South,185,0.0,1.0,97,0.00,,,0.00,weatherlink.com 1.10,2014-09-30 06:51:00,
2014-09-30 03:06:00,74.8,74.0,29.82,South,185,0.0,1.0,97,0.00,,,0.00,weatherlink.com 1.10,2014-09-30 07:06:00,
2014-09-30 03:21:00,74.7,74.0,29.81,South,185,0.0,1.0,97,0.00,,,0.00,weatherlink.com 1.10,2014-09-30 07:21:00,
2014-09-30 03:36:00,74.7,74.0,29.82,South,185,0.0,1.0,97,0.00,,,0.00,weatherlink.com 1.10,2014-09-30 07:36:00,
2014-09-30 03:51:00,74.6,74.0,29.81,South,185,0.0,2.0,97,0.00,,,0.00,weatherlink.com 1.10,2014-09-30 07:51:00,
2014-09-30 04:06:00,74.5,74.0,29.80,South,185,0.0,0.0,97,0.00,,,0.00,weatherlink.com 1.10,2014-09-30 08:06:00,
2014-09-30 04:21:00,74.4,74.0,29.80,South,185,0.0,0.0,97,0.00,,,0.00,weatherlink.com 1.10,2014-09-30 08:21:00,
2014-09-30 04:36:00,74.2,73.0,29.80,South,185,0.0,0.0,97,0.00,,,0.00,weatherlink.com 1.10,2014-09-30 08:36:00,
2014-09-30 04:51:00,74.3,73.0,29.80,South,185,0.0,0.0,97,0.00,,,0.00,weatherlink.com 1.10,2014-09-30 08:51:00,
2014-09-30 05:06:00,73.9,73.0,29.80,South,185,0.0,0.0,97,0.00,,,0.00,weatherlink.com 1.10,2014-09-30 09:06:00,
2014-09-30 05:21:00,73.8,73.0,29.81,South,185,0.0,0.0,97,0.00,,,0.00,weatherlink.com 1.10,2014-09-30 09:21:00,
2014-09-30 05:36:00,73.6,73.0,29.81,South,185,0.0,0.0,97,0.00,,,0.00,weatherlink.com 1.10,2014-09-30 09:36:00,
2014-09-30 05:51:00,73.4,73.0,29.81,South,185,0.0,0.0,97,0.00,,,0.00,weatherlink.com 1.10,2014-09-30 09:51:00,
2014-09-30 06:06:00,73.3,72.0,29.81,South,185,0.0,0.0,97,0.00,,,0.00,weatherlink.com 1.10,2014-09-30 10:06:00,
2014-09-30 06:21:00,73.2,72.0,29.81,South,185,0.0,0.0,97,0.00,,,0.00,weatherlink.com 1.10,2014-09-30 10:21:00,
2014-09-30 06:36:00,73.1,72.0,29.82,South,185,0.0,0.0,97,0.00,,,0.00,weatherlink.com 1.10,2014-09-30 10:36:00,
2014-09-30 06:51:00,72.9,72.0,29.82,South,185,0.0,0.0,97,0.00,,,0.00,weatherlink.com 1.10,2014-09-30 10:51:00,
2014-09-30 07:06:00,73.2,72.0,29.82,South,185,0.0,0.0,97,0.00,,,0.00,weatherlink.com 1.10,2014-09-30 11:06:00,
2014-09-30 07:21:00,73.0,72.0,29.82,South,185,0.0,0.0,97,0.00,,,0.00,weatherlink.com 1.10,2014-09-30 11:21:00,
2014-09-30 07:36:00,72.9,72.0,29.83,South,185,0.0,0.0,97,0.00,,,0.00,weatherlink.com 1.10,2014-09-30 11:36:00,
2014-09-30 07:51:00,73.2,73.0,29.83,South,185,0.0,0.0,98,0.00,,,0.00,weatherlink.com 1.10,2014-09-30 11:51:00,
2014-09-30 08:06:00,74.3,73.0,29.83,South,185,0.0,0.0,97,0.00,,,0.00,weatherlink.com 1.10,2014-09-30 12:06:00,
2014-09-30 08:21:00,75.7,75.0,29.84,South,185,1.0,1.0,97,0.00,,,0.00,weatherlink.com 1.10,2014-09-30 12:21:00,
2014-09-30 08:36:00,77.1,76.0,29.84,South,185,2.0,3.0,97,0.00,,,0.00,weatherlink.com 1.10,2014-09-30 12:36:00,
2014-09-30 08:51:00,78.2,77.0,29.84,WSW,238,0.0,4.0,96,0.00,,,0.00,weatherlink.com 1.10,2014-09-30 12:51:00,
2014-09-30 09:06:00,80.1,78.0,29.84,West,267,3.0,7.0,92,0.00,,,0.00,weatherlink.com 1.10,2014-09-30 13:06:00,
2014-09-30 09:22:00,81.6,77.0,29.85,WSW,238,3.0,8.0,87,0.00,,,0.00,weatherlink.com 1.10,2014-09-30 13:22:00,
2014-09-30 09:37:00,82.3,78.0,29.85,West,280,3.0,8.0,86,0.00,,,0.00,weatherlink.com 1.10,2014-09-30 13:37:00,
2014-09-30 09:52:00,82.6,78.0,29.85,West,279,8.0,9.0,85,0.00,,,0.00,weatherlink.com 1.10,2014-09-30 13:52:00,
2014-09-30 10:07:00,83.8,78.0,29.86,West,279,4.0,11.0,82,0.00,,,0.00,weatherlink.com 1.10,2014-09-30 14:07:00,
2014-09-30 10:22:00,83.3,78.0,29.86,WNW,285,4.0,9.0,83,0.00,,,0.00,weatherlink.com 1.10,2014-09-30 14:22:00,
2014-09-30 10:37:00,84.4,77.0,29.86,West,273,9.0,11.0,79,0.00,,,0.00,weatherlink.com 1.10,2014-09-30 14:37:00,
2014-09-30 10:52:00,83.7,77.0,29.86,WSW,245,4.0,11.0,80,0.00,,,0.00,weatherlink.com 1.10,2014-09-30 14:52:00,
2014-09-30 11:07:00,84.3,78.0,29.86,West,268,8.0,11.0,81,0.00,,,0.00,weatherlink.com 1.10,2014-09-30 15:07:00,
2014-09-30 11:22:00,84.7,78.0,29.85,WSW,246,5.0,14.0,79,0.00,,,0.00,weatherlink.com 1.10,2014-09-30 15:22:00,
2014-09-30 11:37:00,84.4,77.0,29.86,West,263,8.0,11.0,78,0.00,,,0.00,weatherlink.com 1.10,2014-09-30 15:37:00,
2014-09-30 11:52:00,85.6,77.0,29.85,WSW,237,9.0,13.0,75,0.00,,,0.00,weatherlink.com 1.10,2014-09-30 15:52:00,
2014-09-30 12:07:00,86.0,78.0,29.85,West,269,4.0,13.0,76,0.00,,,0.00,weatherlink.com 1.10,2014-09-30 16:07:00,
2014-09-30 12:22:00,85.9,77.0,29.85,WSW,257,8.0,15.0,75,0.00,,,0.00,weatherlink.com 1.10,2014-09-30 16:22:00,
2014-09-30 12:37:00,86.6,77.0,29.85,WNW,299,6.0,14.0,74,0.00,,,0.00,weatherlink.com 1.10,2014-09-30 16:37:00,
2014-09-30 12:52:00,86.4,78.0,29.85,West,264,4.0,14.0,75,0.00,,,0.00,weatherlink.com 1.10,2014-09-30 16:52:00,
2014-09-30 13:07:00,86.3,77.0,29.85,SW,224,7.0,13.0,73,0.00,,,0.00,weatherlink.com 1.10,2014-09-30 17:07:00,
2014-09-30 13:22:00,86.8,78.0,29.84,WSW,237,5.0,16.0,75,0.00,,,0.00,weatherlink.com 1.10,2014-09-30 17:22:00,
2014-09-30 13:37:00,86.8,78.0,29.84,SW,232,8.0,13.0,75,0.00,,,0.00,weatherlink.com 1.10,2014-09-30 17:37:00,
2014-09-30 13:52:00,84.8,77.0,29.83,West,276,7.0,16.0,77,0.00,,,0.00,weatherlink.com 1.10,2014-09-30 17:52:00,
2014-09-30 14:07:00,86.2,77.0,29.83,West,280,8.0,18.0,74,0.00,,,0.00,weatherlink.com 1.10,2014-09-30 18:07:00,
2014-09-30 14:22:00,84.9,77.0,29.82,West,279,4.0,13.0,78,0.00,,,0.00,weatherlink.com 1.10,2014-09-30 18:22:00,
2014-09-30 14:37:00,85.5,76.0,29.83,West,263,5.0,14.0,73,0.00,,,0.00,weatherlink.com 1.10,2014-09-30 18:37:00,
2014-09-30 14:52:00,84.4,75.0,29.82,West,277,6.0,11.0,73,0.00,,,0.00,weatherlink.com 1.10,2014-09-30 18:52:00,
2014-09-30 15:07:00,83.9,76.0,29.81,West,263,11.0,14.0,76,0.00,,,0.00,weatherlink.com 1.10,2014-09-30 19:07:00,
2014-09-30 15:22:00,83.9,77.0,29.80,West,273,7.0,9.0,79,0.00,,,0.00,weatherlink.com 1.10,2014-09-30 19:22:00,
2014-09-30 15:37:00,84.3,77.0,29.80,West,270,2.0,9.0,78,0.00,,,0.00,weatherlink.com 1.10,2014-09-30 19:37:00,
2014-09-30 15:52:00,85.1,77.0,29.80,West,269,6.0,11.0,76,0.00,,,0.00,weatherlink.com 1.10,2014-09-30 19:52:00,
2014-09-30 16:07:00,84.7,77.0,29.80,WSW,248,7.0,9.0,78,0.00,,,0.00,weatherlink.com 1.10,2014-09-30 20:07:00,
2014-09-30 16:22:00,85.0,77.0,29.80,WSW,255,4.0,11.0,77,0.00,,,0.00,weatherlink.com 1.10,2014-09-30 20:22:00,
2014-09-30 16:37:00,84.4,77.0,29.80,West,271,9.0,12.0,79,0.00,,,0.00,weatherlink.com 1.10,2014-09-30 20:37:00,
2014-09-30 16:52:00,84.7,77.0,29.80,West,279,5.0,10.0,78,0.00,,,0.00,weatherlink.com 1.10,2014-09-30 20:52:00,
2014-09-30 17:07:00,85.3,78.0,29.79,WSW,254,5.0,15.0,78,0.00,,,0.00,weatherlink.com 1.10,2014-09-30 21:07:00,
2014-09-30 17:22:00,83.9,77.0,29.80,West,261,2.0,13.0,80,0.00,,,0.00,weatherlink.com 1.10,2014-09-30 21:22:00,
2014-09-30 17:37:00,82.9,76.0,29.81,WNW,285,8.0,15.0,80,0.00,,,0.00,weatherlink.com 1.10,2014-09-30 21:37:00,
2014-09-30 17:52:00,81.7,75.0,29.81,WSW,245,10.0,13.0,81,0.00,,,0.00,weatherlink.com 1.10,2014-09-30 21:52:00,
2014-09-30 18:07:00,82.1,76.0,29.81,West,262,2.0,11.0,81,0.00,,,0.00,weatherlink.com 1.10,2014-09-30 22:07:00,
2014-09-30 18:22:00,81.2,75.0,29.81,WSW,253,2.0,6.0,82,0.00,,,0.00,weatherlink.com 1.10,2014-09-30 22:22:00,
2014-09-30 18:37:00,81.1,76.0,29.82,WNW,290,1.0,4.0,84,0.00,,,0.00,weatherlink.com 1.10,2014-09-30 22:37:00,
2014-09-30 18:52:00,80.9,76.0,29.82,WNW,290,0.0,2.0,85,0.00,,,0.00,weatherlink.com 1.10,2014-09-30 22:52:00,
2014-09-30 19:07:00,80.5,76.0,29.82,WNW,290,0.0,1.0,87,0.00,,,0.00,weatherlink.com 1.10,2014-09-30 23:07:00,
2014-09-30 19:22:00,80.2,76.0,29.82,WNW,290,0.0,0.0,88,0.00,,,0.00,weatherlink.com 1.10,2014-09-30 23:22:00,